Polinya, Spain
Current Conditions -  °F | °C
As of 5:00 PM on Thursday 27 Nov 2014 (Local Time) from LELL Reporting Station
Scattered Clouds Scattered Clouds  
Wind Chill: 61°   Ceiling: Unl
Heat Index: 61°   Visibility: 5mi
Dew Point: 55°   Wind: 1mph
Humidity: 82%   Direction: NA
Pressure: 29.62"   Gusts: NA
Location:  41.55°N, 2.15°E
Report Text: LELL 271600Z VRB01KT 8000 FEW015CB SCT035 16/13 Q1003
Loading
Personal Weather Stations






























Interactive Weather Map New forecast layout! Learn more

10-Day Weather Forecast

Advertisements
Track Severe Weather on mobile